createdAt,value
2019-05-26T00:00:07.782Z,93.10
2019-05-26T00:02:35.312Z,93.40
2019-05-26T00:05:03.452Z,93.20
2019-05-26T00:07:31.215Z,93.00
2019-05-26T00:09:58.928Z,93.70
2019-05-26T00:12:26.462Z,93.50
2019-05-26T00:14:54.020Z,93.50
2019-05-26T00:17:21.559Z,93.70
2019-05-26T00:19:49.128Z,93.10
2019-05-26T00:22:16.656Z,92.70
2019-05-26T00:24:44.221Z,92.70
2019-05-26T00:27:11.757Z,93.20
2019-05-26T00:29:39.320Z,92.80
2019-05-26T00:32:06.852Z,92.80
2019-05-26T00:34:34.678Z,93.30
2019-05-26T00:37:02.225Z,92.50
2019-05-26T00:39:29.788Z,92.60
2019-05-26T00:41:57.372Z,92.70
2019-05-26T00:44:24.932Z,92.80
2019-05-26T00:46:52.468Z,93.00
2019-05-26T00:49:20.028Z,92.80
2019-05-26T00:51:48.009Z,92.70
2019-05-26T00:54:15.573Z,92.90
2019-05-26T00:56:43.105Z,93.50
2019-05-26T00:59:10.673Z,94.10
2019-05-26T01:01:38.206Z,93.90
2019-05-26T01:04:05.765Z,93.40
2019-05-26T01:06:33.301Z,93.70
2019-05-26T01:09:00.840Z,93.80
2019-05-26T01:11:28.685Z,93.40
2019-05-26T01:13:56.221Z,93.70
2019-05-26T01:16:23.786Z,93.60
2019-05-26T01:18:51.320Z,93.40
2019-05-26T01:21:18.888Z,93.20
2019-05-26T01:23:46.422Z,93.20
2019-05-26T01:26:13.990Z,93.20
2019-05-26T01:28:41.515Z,93.20
2019-05-26T01:31:09.365Z,93.20
2019-05-26T01:33:36.900Z,93.50
2019-05-26T01:36:04.463Z,93.70
2019-05-26T01:38:31.996Z,93.70
2019-05-26T01:40:59.561Z,93.40
2019-05-26T01:43:27.096Z,92.90
2019-05-26T01:45:54.661Z,92.90
2019-05-26T01:48:22.197Z,92.70
2019-05-26T01:50:49.763Z,92.90
2019-05-26T01:53:17.309Z,93.00
2019-05-26T01:55:44.868Z,93.20
2019-05-26T01:58:12.409Z,93.20
2019-05-26T02:00:39.973Z,93.40
2019-05-26T02:03:07.587Z,93.40
2019-05-26T02:05:35.148Z,93.30
2019-05-26T02:08:03.552Z,93.40
2019-05-26T02:10:31.112Z,93.40
2019-05-26T02:12:58.905Z,93.30
2019-05-26T02:15:26.482Z,93.10
2019-05-26T02:17:54.009Z,92.40
2019-05-26T02:20:21.620Z,92.70
2019-05-26T02:22:49.148Z,92.80
2019-05-26T02:25:16.715Z,92.80
2019-05-26T02:27:44.249Z,92.90
2019-05-26T02:30:11.949Z,92.70
2019-05-26T02:32:39.741Z,92.30
2019-05-26T02:35:07.282Z,92.40
2019-05-26T02:37:34.845Z,91.70
2019-05-26T02:40:02.848Z,92.30
2019-05-26T02:42:30.413Z,92.50
2019-05-26T02:44:59.440Z,92.50
2019-05-26T02:47:27.289Z,92.70
2019-05-26T02:49:54.833Z,92.60
2019-05-26T02:52:22.452Z,92.30
2019-05-26T02:54:49.984Z,92.10
2019-05-26T02:57:17.549Z,92.10
2019-05-26T02:59:45.085Z,92.10
2019-05-26T03:02:12.654Z,91.90
2019-05-26T03:04:40.184Z,92.00
2019-05-26T03:07:08.080Z,92.40
2019-05-26T03:09:35.955Z,92.80
2019-05-26T03:12:03.570Z,92.40
2019-05-26T03:14:32.273Z,92.00
2019-05-26T03:16:59.838Z,92.10
2019-05-26T03:19:27.369Z,92.50
2019-05-26T03:21:55.905Z,92.90
2019-05-26T03:24:23.436Z,93.10
2019-05-26T03:26:50.997Z,93.30
2019-05-26T03:29:18.533Z,93.60
2019-05-26T03:31:46.115Z,93.60
2019-05-26T03:34:13.645Z,93.50
2019-05-26T03:36:41.210Z,93.50
2019-05-26T03:39:08.768Z,93.40
2019-05-26T03:41:36.582Z,93.50
2019-05-26T03:44:04.163Z,93.10
2019-05-26T03:46:31.744Z,93.30
2019-05-26T03:48:59.297Z,93.50
2019-05-26T03:51:26.942Z,93.50
2019-05-26T03:53:54.519Z,93.60
2019-05-26T03:56:22.052Z,93.60
2019-05-26T03:58:49.632Z,93.70
2019-05-26T04:01:17.466Z,93.90
2019-05-26T04:03:45.033Z,94.00
2019-05-26T04:06:12.575Z,93.90
2019-05-26T04:08:40.181Z,93.60
2019-05-26T04:11:07.738Z,93.80
2019-05-26T04:13:35.313Z,93.60
2019-05-26T04:16:02.850Z,93.80
2019-05-26T04:18:30.508Z,93.80
2019-05-26T04:20:58.074Z,93.70
2019-05-26T04:23:25.655Z,93.60
2019-05-26T04:25:53.190Z,93.40
2019-05-26T04:28:20.755Z,93.40
2019-05-26T04:30:48.293Z,93.30
2019-05-26T04:33:15.848Z,93.30
2019-05-26T04:35:43.385Z,93.10
2019-05-26T04:38:10.953Z,93.00
2019-05-26T04:40:38.729Z,93.40
2019-05-26T04:43:06.291Z,92.90
2019-05-26T04:45:33.829Z,92.80
2019-05-26T04:48:01.393Z,92.70
2019-05-26T04:50:29.385Z,93.20
2019-05-26T04:53:06.077Z,93.40
2019-05-26T04:55:26.201Z,93.40
2019-05-26T04:57:53.768Z,93.30
2019-05-26T05:00:21.382Z,93.50
2019-05-26T05:02:48.961Z,93.30
2019-05-26T05:05:16.501Z,93.20
2019-05-26T05:07:44.049Z,93.50
2019-05-26T05:10:11.768Z,93.70
2019-05-26T05:12:39.337Z,93.70
2019-05-26T05:15:06.909Z,94.00
2019-05-26T05:17:34.465Z,94.30
2019-05-26T05:20:02.123Z,94.50
2019-05-26T05:22:29.824Z,94.40
2019-05-26T05:24:57.389Z,94.40
2019-05-26T05:27:25.197Z,94.50
2019-05-26T05:29:52.760Z,94.50
2019-05-26T05:32:20.303Z,94.70
2019-05-26T05:34:47.892Z,95.10
2019-05-26T05:37:15.461Z,95.30
2019-05-26T05:39:43.074Z,95.40
2019-05-26T05:42:10.624Z,95.50
2019-05-26T05:44:38.188Z,95.30
2019-05-26T05:47:05.724Z,95.30
2019-05-26T05:49:33.298Z,95.50
2019-05-26T05:52:00.833Z,95.60
2019-05-26T05:54:28.472Z,95.30
2019-05-26T05:56:56.019Z,95.50
2019-05-26T05:59:23.589Z,95.40
2019-05-26T06:01:51.116Z,95.10
2019-05-26T06:04:18.713Z,94.60
2019-05-26T06:06:46.421Z,95.00
2019-05-26T06:09:14.012Z,95.10
2019-05-26T06:11:41.548Z,94.90
2019-05-26T06:14:09.137Z,95.00
2019-05-26T06:16:36.657Z,95.80
2019-05-26T06:19:04.548Z,95.60
2019-05-26T06:21:32.087Z,95.90
2019-05-26T06:23:59.620Z,96.30
2019-05-26T06:26:27.185Z,96.00
2019-05-26T06:28:54.721Z,96.00
2019-05-26T06:31:22.289Z,95.70
2019-05-26T06:33:49.833Z,95.80
2019-05-26T06:36:17.481Z,95.80
2019-05-26T06:38:45.017Z,95.80
2019-05-26T06:41:12.590Z,95.90
2019-05-26T06:43:40.129Z,95.80
2019-05-26T06:46:07.740Z,95.40
2019-05-26T06:48:35.283Z,95.00
2019-05-26T06:51:02.842Z,94.90
2019-05-26T06:53:30.372Z,94.20
2019-05-26T06:55:58.024Z,94.30
2019-05-26T06:58:25.603Z,93.70
2019-05-26T07:00:53.172Z,93.50
2019-05-26T07:03:20.708Z,93.10
2019-05-26T07:05:48.285Z,93.00
2019-05-26T07:08:15.837Z,93.00
2019-05-26T07:10:43.408Z,91.50
2019-05-26T07:13:10.980Z,92.50
2019-05-26T07:15:38.545Z,92.30
2019-05-26T07:18:06.091Z,92.30
2019-05-26T07:20:33.664Z,92.10
2019-05-26T07:23:01.335Z,92.20
2019-05-26T07:25:29.020Z,91.60
2019-05-26T07:27:56.650Z,90.90
2019-05-26T07:30:24.220Z,90.40
2019-05-26T07:32:51.765Z,91.80
2019-05-26T07:35:19.368Z,90.60
2019-05-26T07:38:06.345Z,90.20
2019-05-26T07:40:33.922Z,89.90
2019-05-26T07:43:01.468Z,87.80
2019-05-26T07:45:29.513Z,89.00
2019-05-26T07:47:57.093Z,87.90
2019-05-26T07:50:24.633Z,85.40
2019-05-26T07:52:52.196Z,85.90
2019-05-26T07:55:19.758Z,85.80
2019-05-26T07:57:47.612Z,85.70
2019-05-26T08:00:15.177Z,81.40
2019-05-26T08:02:42.878Z,78.90
2019-05-26T08:05:10.432Z,75.80
2019-05-26T08:07:38.289Z,74.50
2019-05-26T08:10:05.951Z,73.90
2019-05-26T08:12:33.548Z,74.50
2019-05-26T08:15:01.401Z,73.50
2019-05-26T08:17:29.050Z,70.70
2019-05-26T08:19:56.884Z,74.00
2019-05-26T08:22:24.453Z,68.80
2019-05-26T08:24:51.992Z,69.30
2019-05-26T08:27:19.552Z,66.90
2019-05-26T08:29:47.088Z,66.00
2019-05-26T08:32:15.225Z,65.30
2019-05-26T08:34:42.897Z,61.60
2019-05-26T08:37:10.476Z,61.10
2019-05-26T08:39:38.018Z,58.60
2019-05-26T08:42:05.610Z,58.90
2019-05-26T08:44:33.200Z,55.80
2019-05-26T08:47:00.769Z,60.10
2019-05-26T08:49:28.318Z,57.70
2019-05-26T08:51:55.887Z,56.70
2019-05-26T08:54:23.420Z,55.80
2019-05-26T08:56:50.956Z,54.90
2019-05-26T08:59:18.520Z,54.30
2019-05-26T09:01:46.092Z,54.60
2019-05-26T09:04:13.656Z,54.60
2019-05-26T09:06:41.193Z,59.10
2019-05-26T09:09:08.840Z,59.50
2019-05-26T09:11:36.364Z,57.80
2019-05-26T09:14:04.536Z,55.60
2019-05-26T09:16:32.066Z,58.60
2019-05-26T09:18:59.629Z,55.10
2019-05-26T09:21:27.246Z,56.80
2019-05-26T09:23:54.879Z,56.30
2019-05-26T09:26:22.416Z,54.10
2019-05-26T09:28:49.980Z,54.00
2019-05-26T09:31:17.877Z,54.00
2019-05-26T09:33:45.572Z,56.00
2019-05-26T09:36:13.115Z,53.40
2019-05-26T09:38:40.769Z,54.90
2019-05-26T09:41:08.306Z,53.90
2019-05-26T09:43:35.892Z,59.70
2019-05-26T09:46:03.441Z,58.10
2019-05-26T09:48:31.005Z,51.40
2019-05-26T09:50:58.540Z,50.90
2019-05-26T09:53:26.105Z,50.30
2019-05-26T09:55:53.640Z,50.80
2019-05-26T09:58:21.627Z,51.00
2019-05-26T10:00:49.189Z,49.00
2019-05-26T10:03:16.728Z,49.20
2019-05-26T10:05:44.297Z,50.80
2019-05-26T10:08:11.846Z,50.70
2019-05-26T10:10:39.405Z,47.10
2019-05-26T10:13:06.965Z,45.80
2019-05-26T10:15:34.579Z,47.70
2019-05-26T10:18:02.407Z,47.60
2019-05-26T10:20:30.060Z,46.00
2019-05-26T10:22:57.689Z,49.70
2019-05-26T10:25:25.520Z,46.50
2019-05-26T10:27:53.056Z,42.80
2019-05-26T10:30:20.621Z,44.50
2019-05-26T10:32:48.164Z,43.70
2019-05-26T10:35:15.772Z,48.50
2019-05-26T10:37:43.310Z,45.50
2019-05-26T10:40:10.889Z,45.90
2019-05-26T10:42:38.425Z,44.60
2019-05-26T10:45:06.522Z,43.90
2019-05-26T10:47:34.072Z,41.80
2019-05-26T10:50:01.672Z,42.50
2019-05-26T10:52:29.347Z,44.20
2019-05-26T10:54:56.912Z,44.80
2019-05-26T10:57:25.620Z,41.50
2019-05-26T10:59:53.217Z,42.20
2019-05-26T11:02:20.748Z,42.00
2019-05-26T11:04:48.313Z,43.00
2019-05-26T11:07:15.864Z,41.10
2019-05-26T11:09:43.430Z,42.90
2019-05-26T11:12:11.385Z,45.10
2019-05-26T11:14:38.973Z,43.90
2019-05-26T11:17:06.508Z,44.60
2019-05-26T11:19:34.076Z,44.90
2019-05-26T11:22:01.613Z,43.20
2019-05-26T11:24:29.180Z,45.90
2019-05-26T11:27:06.995Z,45.70
2019-05-26T11:29:26.078Z,41.20
2019-05-26T11:31:53.624Z,42.10
2019-05-26T11:34:21.184Z,42.60
2019-05-26T11:36:48.759Z,44.10
2019-05-26T11:39:16.401Z,46.00
2019-05-26T11:41:43.962Z,43.50
2019-05-26T11:44:17.889Z,44.00
2019-05-26T11:46:40.789Z,47.30
2019-05-26T11:49:08.321Z,44.50
2019-05-26T11:51:35.893Z,43.40
2019-05-26T11:54:03.435Z,42.80
2019-05-26T11:56:30.997Z,42.50
2019-05-26T11:58:58.528Z,43.80
2019-05-26T12:01:26.365Z,44.20
2019-05-26T12:03:53.921Z,42.60
2019-05-26T12:06:21.893Z,46.20
2019-05-26T12:08:49.436Z,43.40
2019-05-26T12:11:17.010Z,40.30
2019-05-26T12:13:44.794Z,42.60
2019-05-26T12:16:12.368Z,43.30
2019-05-26T12:18:39.912Z,41.30
2019-05-26T12:21:07.482Z,43.60
2019-05-26T12:23:35.089Z,44.00
2019-05-26T12:26:02.660Z,44.30
2019-05-26T12:28:30.217Z,40.50
2019-05-26T12:30:57.764Z,41.30
2019-05-26T12:33:25.300Z,42.60
2019-05-26T12:35:53.332Z,43.30
2019-05-26T12:38:21.103Z,43.00
2019-05-26T12:40:48.659Z,42.50
2019-05-26T12:43:16.243Z,43.30
2019-05-26T12:45:43.828Z,43.40
2019-05-26T12:48:11.392Z,41.60
2019-05-26T12:50:38.929Z,40.40
2019-05-26T12:53:06.496Z,40.50
2019-05-26T12:55:34.129Z,39.70
2019-05-26T12:58:01.695Z,40.40
2019-05-26T13:00:45.353Z,42.40
2019-05-26T13:02:58.550Z,42.00
2019-05-26T13:05:26.074Z,41.80
2019-05-26T13:07:53.659Z,42.60
2019-05-26T13:10:21.925Z,43.50
2019-05-26T13:12:49.485Z,41.90
2019-05-26T13:15:17.023Z,40.00
2019-05-26T13:17:44.595Z,41.30
2019-05-26T13:20:12.124Z,43.50
2019-05-26T13:22:40.901Z,43.90
2019-05-26T13:25:08.657Z,42.80
2019-05-26T13:27:36.216Z,43.50
2019-05-26T13:30:07.381Z,44.20
2019-05-26T13:32:34.944Z,43.80
2019-05-26T13:35:02.494Z,43.10
2019-05-26T13:37:30.125Z,43.60
2019-05-26T13:39:57.696Z,40.50
2019-05-26T13:42:25.239Z,41.00
2019-05-26T13:44:53.110Z,41.60
2019-05-26T13:47:26.070Z,42.50
2019-05-26T13:49:49.972Z,41.80
2019-05-26T13:52:17.512Z,42.70
2019-05-26T13:54:45.076Z,40.70
2019-05-26T13:57:12.619Z,41.00
2019-05-26T13:59:40.180Z,39.40
2019-05-26T14:02:07.717Z,39.90
2019-05-26T14:04:35.294Z,40.40
2019-05-26T14:07:02.831Z,40.40
2019-05-26T14:09:30.401Z,40.00
2019-05-26T14:11:57.946Z,41.00
2019-05-26T14:14:25.504Z,39.30
2019-05-26T14:16:53.041Z,43.10
2019-05-26T14:19:21.292Z,42.60
2019-05-26T14:21:48.817Z,43.30
2019-05-26T14:24:16.699Z,43.00
2019-05-26T14:26:44.246Z,46.00
2019-05-26T14:29:11.828Z,44.40
2019-05-26T14:31:39.365Z,43.60
2019-05-26T14:34:07.249Z,41.20
2019-05-26T14:36:34.830Z,40.20
2019-05-26T14:39:02.508Z,40.50
2019-05-26T14:41:30.044Z,40.70
2019-05-26T14:43:57.621Z,39.90
2019-05-26T14:46:25.159Z,40.90
2019-05-26T14:48:52.693Z,43.50
2019-05-26T14:51:20.255Z,44.50
2019-05-26T14:53:47.800Z,43.50
2019-05-26T14:56:15.697Z,43.00
2019-05-26T14:58:43.231Z,44.70
2019-05-26T15:01:10.860Z,43.70
2019-05-26T15:03:38.405Z,43.70
2019-05-26T15:06:06.459Z,46.00
2019-05-26T15:08:34.045Z,48.60
2019-05-26T15:11:01.632Z,49.90
2019-05-26T15:13:29.160Z,46.70
2019-05-26T15:16:09.201Z,47.20
2019-05-26T15:18:25.983Z,46.20
2019-05-26T15:20:55.992Z,49.00
2019-05-26T15:23:23.053Z,45.90
2019-05-26T15:25:50.614Z,45.50
2019-05-26T15:28:18.225Z,43.70
2019-05-26T15:30:46.034Z,45.00
2019-05-26T15:33:13.569Z,45.10
2019-05-26T15:35:41.132Z,47.00
2019-05-26T15:38:08.716Z,47.20
2019-05-26T15:40:36.415Z,47.80
2019-05-26T15:43:03.964Z,47.60
2019-05-26T15:45:31.532Z,49.10
2019-05-26T15:47:59.071Z,48.80
2019-05-26T15:50:26.632Z,48.80
2019-05-26T15:52:54.174Z,46.30
2019-05-26T15:55:21.778Z,48.50
2019-05-26T15:57:49.301Z,47.70
2019-05-26T16:00:16.878Z,47.10
2019-05-26T16:02:44.730Z,47.90
2019-05-26T16:05:12.321Z,48.10
2019-05-26T16:07:39.860Z,45.40
2019-05-26T16:10:07.431Z,47.10
2019-05-26T16:12:34.997Z,47.00
2019-05-26T16:15:02.663Z,48.00
2019-05-26T16:17:30.436Z,48.60
2019-05-26T16:19:58.249Z,49.40
2019-05-26T16:22:25.791Z,48.10
2019-05-26T16:24:53.368Z,46.40
2019-05-26T16:27:21.278Z,48.00
2019-05-26T16:29:48.978Z,46.70
2019-05-26T16:32:18.810Z,47.50
2019-05-26T16:34:45.849Z,47.30
2019-05-26T16:37:13.484Z,47.30
2019-05-26T16:39:41.053Z,46.90
2019-05-26T16:42:08.959Z,47.10
2019-05-26T16:44:36.533Z,47.90
2019-05-26T16:47:04.116Z,48.30
2019-05-26T16:49:31.653Z,47.20
2019-05-26T16:51:59.236Z,49.50
2019-05-26T16:54:26.756Z,48.40
2019-05-26T16:56:54.330Z,46.80
2019-05-26T16:59:21.864Z,47.20
2019-05-26T17:01:49.424Z,48.60
2019-05-26T17:04:16.960Z,49.80
2019-05-26T17:06:44.555Z,50.30
2019-05-26T17:09:12.433Z,50.10
2019-05-26T17:11:40.012Z,48.40
2019-05-26T17:14:07.849Z,47.80
2019-05-26T17:16:35.418Z,46.90
2019-05-26T17:19:03.122Z,49.20
2019-05-26T17:21:30.677Z,47.70
2019-05-26T17:23:58.212Z,47.80
2019-05-26T17:26:26.029Z,47.00
2019-05-26T17:28:53.565Z,50.00
2019-05-26T17:31:21.177Z,48.80
2019-05-26T17:33:48.753Z,49.30
2019-05-26T17:36:16.615Z,49.70
2019-05-26T17:38:44.178Z,48.50
2019-05-26T17:41:11.812Z,50.70
2019-05-26T17:43:39.389Z,49.70
2019-05-26T17:46:07.013Z,48.60
2019-05-26T17:48:34.719Z,49.80
2019-05-26T17:51:02.335Z,51.20
2019-05-26T17:53:29.876Z,50.40
2019-05-26T17:55:57.464Z,51.80
2019-05-26T17:58:25.060Z,53.20
2019-05-26T18:00:52.641Z,50.70
2019-05-26T18:03:20.179Z,51.40
2019-05-26T18:05:47.748Z,53.20
2019-05-26T18:08:15.296Z,52.40
2019-05-26T18:10:42.841Z,53.90
2019-05-26T18:13:10.432Z,54.20
2019-05-26T18:15:37.996Z,53.50
2019-05-26T18:18:05.565Z,53.80
2019-05-26T18:20:33.188Z,54.80
2019-05-26T18:23:00.781Z,54.50
2019-05-26T18:25:28.318Z,54.90
2019-05-26T18:27:55.900Z,56.40
2019-05-26T18:30:23.437Z,54.90
2019-05-26T18:32:51.032Z,53.40
2019-05-26T18:35:18.564Z,53.70
2019-05-26T18:37:46.140Z,54.00
2019-05-26T18:40:13.682Z,53.50
2019-05-26T18:42:41.262Z,52.30
2019-05-26T18:45:09.068Z,52.80
2019-05-26T18:47:36.649Z,52.50
2019-05-26T18:50:06.856Z,53.30
2019-05-26T18:52:35.277Z,54.30
2019-05-26T18:55:02.846Z,53.00
2019-05-26T18:57:49.837Z,52.30
2019-05-26T19:00:17.388Z,52.90
2019-05-26T19:02:44.965Z,53.90
2019-05-26T19:05:12.524Z,53.30
2019-05-26T19:07:40.093Z,53.00
2019-05-26T19:10:07.628Z,53.60
2019-05-26T19:12:35.203Z,52.20
2019-05-26T19:15:03.152Z,52.40
2019-05-26T19:17:50.161Z,53.00
2019-05-26T19:20:18.244Z,54.60
2019-05-26T19:22:46.118Z,54.50
2019-05-26T19:25:13.663Z,54.20
2019-05-26T19:27:41.245Z,55.10
2019-05-26T19:30:08.779Z,55.00
2019-05-26T19:32:36.352Z,54.90
2019-05-26T19:35:05.457Z,55.30
2019-05-26T19:37:33.035Z,55.30
2019-05-26T19:40:00.600Z,55.90
2019-05-26T19:42:28.173Z,56.40
2019-05-26T19:44:55.709Z,56.30
2019-05-26T19:47:23.274Z,57.40
2019-05-26T19:49:50.809Z,56.20
2019-05-26T19:52:18.377Z,56.00
2019-05-26T19:54:45.921Z,56.90
2019-05-26T19:57:13.483Z,57.00
2019-05-26T19:59:41.066Z,56.40
2019-05-26T20:02:18.418Z,58.10
2019-05-26T20:04:38.157Z,56.40
2019-05-26T20:07:05.809Z,59.20
2019-05-26T20:09:33.345Z,58.10
2019-05-26T20:12:00.908Z,59.20
2019-05-26T20:14:28.472Z,60.70
2019-05-26T20:16:56.048Z,58.90
2019-05-26T20:19:23.581Z,59.60
2019-05-26T20:21:51.116Z,59.60
2019-05-26T20:24:18.685Z,59.10
2019-05-26T20:26:46.272Z,59.70
2019-05-26T20:29:13.849Z,59.20
2019-05-26T20:31:41.684Z,60.70
2019-05-26T20:34:09.249Z,59.80
2019-05-26T20:36:36.788Z,60.50
2019-05-26T20:39:06.129Z,60.20
2019-05-26T20:41:33.665Z,60.00
2019-05-26T20:44:01.229Z,61.40
2019-05-26T20:46:28.771Z,60.00
2019-05-26T20:48:56.353Z,61.40
2019-05-26T20:51:23.893Z,62.50
2019-05-26T20:53:51.462Z,61.60
2019-05-26T20:56:19.142Z,62.60
2019-05-26T20:58:46.709Z,62.20
2019-05-26T21:01:14.254Z,62.80
2019-05-26T21:03:42.104Z,63.30
2019-05-26T21:06:09.682Z,65.10
2019-05-26T21:08:37.637Z,64.60
2019-05-26T21:11:05.172Z,65.10
2019-05-26T21:13:32.741Z,62.00
2019-05-26T21:16:00.617Z,64.50
2019-05-26T21:18:28.189Z,63.60
2019-05-26T21:20:55.725Z,62.90
2019-05-26T21:23:23.292Z,64.40
2019-05-26T21:25:50.830Z,65.00
2019-05-26T21:28:18.412Z,65.30
2019-05-26T21:30:46.285Z,65.30
2019-05-26T21:33:13.838Z,65.10
2019-05-26T21:35:41.388Z,66.40
2019-05-26T21:38:08.924Z,66.40
2019-05-26T21:40:36.489Z,67.20
2019-05-26T21:43:04.116Z,67.70
2019-05-26T21:45:31.732Z,66.50
2019-05-26T21:47:59.251Z,66.00
2019-05-26T21:50:26.819Z,66.60
2019-05-26T21:52:54.355Z,67.40
2019-05-26T21:55:21.918Z,68.10
2019-05-26T21:57:49.454Z,69.20
2019-05-26T22:00:19.049Z,68.00
2019-05-26T22:02:46.589Z,68.90
2019-05-26T22:05:14.153Z,68.60
2019-05-26T22:07:41.937Z,69.80
2019-05-26T22:10:09.516Z,69.40
2019-05-26T22:12:37.044Z,70.00
2019-05-26T22:15:05.880Z,70.40
2019-05-26T22:17:33.417Z,70.60
2019-05-26T22:20:01.285Z,70.70
2019-05-26T22:22:28.810Z,70.50
2019-05-26T22:24:56.373Z,70.70
2019-05-26T22:27:23.911Z,72.90
2019-05-26T22:29:51.473Z,72.60
2019-05-26T22:32:19.089Z,70.60
2019-05-26T22:34:46.649Z,71.50
2019-05-26T22:37:14.193Z,71.90
2019-05-26T22:39:41.756Z,71.90
2019-05-26T22:42:09.320Z,72.30
2019-05-26T22:44:36.852Z,72.60
2019-05-26T22:47:04.427Z,73.10
2019-05-26T22:49:31.968Z,74.00
2019-05-26T22:51:59.576Z,74.60
2019-05-26T22:54:27.117Z,74.80
2019-05-26T22:56:54.969Z,73.70
2019-05-26T22:59:22.519Z,75.60
2019-05-26T23:01:50.082Z,74.60
2019-05-26T23:04:17.977Z,75.50
2019-05-26T23:06:45.517Z,77.50
2019-05-26T23:09:13.053Z,76.70
2019-05-26T23:11:40.619Z,76.70
2019-05-26T23:14:08.152Z,76.80
2019-05-26T23:16:36.059Z,76.80
2019-05-26T23:19:18.317Z,78.00
2019-05-26T23:21:32.884Z,77.10
2019-05-26T23:24:00.425Z,76.80
2019-05-26T23:26:27.990Z,78.60
2019-05-26T23:28:55.526Z,78.40
2019-05-26T23:31:23.083Z,78.40
2019-05-26T23:33:50.624Z,78.10
2019-05-26T23:36:18.190Z,77.60
2019-05-26T23:38:45.725Z,77.90
2019-05-26T23:41:13.291Z,78.40
2019-05-26T23:43:40.872Z,78.50
2019-05-26T23:46:08.722Z,78.60
2019-05-26T23:48:36.339Z,79.00
2019-05-26T23:51:03.905Z,79.80
2019-05-26T23:53:31.464Z,79.70
2019-05-26T23:55:59.005Z,79.70
2019-05-26T23:58:26.564Z,79.80
